To NAV CANADA Home Page Login to a new session Search on AWWS site Feedback and Comments Disclaimer Vers la page française équivalente Tips FAQ What's new on the site To the Forecasts and Observations / NOTAM section To "File a Flight Plan" website Publications and other links Update of the User's profile FIC Telephone Numbers My Weather Data Folder Route Weather Data Regional Weather Data Local Weather Data To the Forecasts and Observations / NOTAM section
Request Generated 08/25/2016 at 16:39:29 UTC . Weather information available at that time is displayed.

METAR/TAF

CALGARY INTL/AB    

METAR CYYC 251600Z 33013G18KT 15SM SCT030 BKN090 BKN150 13/08 A3029
RMK CU3AC3AC1 TCU ASOCTD SH DIST W & E SLP267 DENSITY ALT 3700FT=
METAR CYYC 251500Z 34006KT 290V360 30SM BKN084 BKN120 13/10 A3029 RMK
AC6AC1 ACC ASOCTD SH ALQDS SLP268 DENSITY ALT 3700FT=
SPECI CYYC 251445Z 33004KT 30SM -SHRA BKN088 BKN120 13/10 A3029 RMK
AC6AC1 SLP266 DENSITY ALT 3700FT=
METAR CYYC 251400Z 34009KT 30SM BKN075 BKN120 12/09 A3028 RMK AC5AC2
ACC ASOCTD SH DIST NE, S & W SLP263=

TAF CYYC 251440Z 2515/2612 34008KT P6SM FEW030 BKN080 TEMPO 2515/2516
VRB15G25KT 5SM TSRA BKN030CB
FM251600 34012KT P6SM SCT030 BKN080 TEMPO 2516/2518 P6SM -SHRA
BKN030
FM251800 35012G22KT P6SM SCT025 BKN050 TEMPO 2518/2603 VRB25G35KT
4SM TSRAGR BKN025CB
FM260300 36008KT P6SM SCT020 BKN040
BECMG 2603/2605 28006KT
FM260600 25006KT P6SM SCT040
FM261000 31006KT P6SM SKC TEMPO 2610/2612 2SM BR PROB30 2610/2612
1/2SM FG VV004
RMK NXT FCST BY 251800Z=
Your time UTC time
Weather data provided by Environment Canada and NAV CANADA